الصفحة الرئيسية
METAR-TAF:

METAR-TAF

مطار :

Ponta Delgada, الأزور, البرتغال

دائرة عرض: 37-44N, خط طول: 025-42W, ارتفاع: 71 متر

مراقبة الطقس الحالي

تاريخ ووقت الإصدار 23 دقيقة قبل الساعة 22:30UTC
ريح 9 عقدة من الشمال/الشمال الشرقي
درجة الحرارة 23°درجة مئوية
الرطوبة 83%
ضغط 1029 hPa
الرؤية 10 كم أو أكثر
غيوم قليلة على ارتفاع 1400 قدم

METAR: LPPD 152230Z 02009KT 9999 FEW014 23/20 Q1029

زمن: 22:53 (22:53 UTC)

توقعات

تاريخ ووقت الإصدار 5ساعات و 53 دقيقة قبل الساعة 17:00UTC
التوقعات صالحة من15 الساعة 18 UTC إلى 16 الساعة 18 UTC
ريح 10 عقدة من الشمال/الشمال الشرقي
الرؤية 10 كم أو أكثر
غيوم متفرقة على ارتفاع 1800 قدم
أصبح
من 16 الساعة 09 UTC إلى 16 الساعة 11 UTC
ريح 5 عقدةمن اتجاهات متغيرة
غيوم متفرقة على ارتفاع 2500 قدم

TAF: LPPD 151700Z 1518/1618 03010KT 9999 SCT018 BECMG 1609/1611 VRB05KT SCT025

أرصاد الطقس والتوقعات من أكثر من 4000 مطار (تقارير الطقس للمطار METAR والتنبؤ بالطقس بالمطارTAF).

المحطات المتاحة هي النقط الصفراء والحمراء على الخريطة.

حرك المؤشر فوق النقطة لمعرفة اسم المحطة.

ثم انقر لمعرفة أرصاد وتوقعات الطقس.

لتغيير الخارطة: اضغط على الأزرار الخضراء مع رمز الصليب الأسود للتكبير. على الزر الأخضر مع شرطة للتصغير، أو على الأسهم الخضراء للخرائط المجاورة.


METAR-TAF: